Time;durP1;ratioP1;P1;durP2;ratioP2;P2;SDS_P1;SDS_P2;PMS_P1;PMS_P2;Temp;Humidity;BMP_temperature;BMP_pressure;BME280_temperature;BME280_humidity;BME280_pressure;Samples;Min_cycle;Max_cycle;Signal;HPM_P1;HPM_P2
2023/10/27 00:00:35;;;;;;;18.98;12.52;;;9.80;99.90;;;;;;5033559;28;20531;-82
2023/10/27 00:03:01;;;;;;;17.13;11.68;;;9.80;99.90;;;;;;5016359;28;20038;-79
2023/10/27 00:05:26;;;;;;;17.95;11.35;;;9.90;99.90;;;;;;5033591;28;20408;-80
2023/10/27 00:07:52;;;;;;;18.48;10.90;;;9.80;99.90;;;;;;5033390;28;20156;-81
2023/10/27 00:10:17;;;;;;;17.88;12.43;;;9.80;99.90;;;;;;5032815;28;20041;-80
2023/10/27 00:12:43;;;;;;;15.02;10.75;;;9.80;99.90;;;;;;5032827;28;20048;-81
2023/10/27 00:15:09;;;;;;;16.50;10.70;;;9.80;99.90;;;;;;5016211;28;20034;-81
2023/10/27 00:17:35;;;;;;;18.40;11.80;;;9.70;99.90;;;;;;5032443;28;20124;-79
2023/10/27 00:20:02;;;;;;;16.52;10.70;;;9.80;99.90;;;;;;5033164;28;20115;-80
2023/10/27 00:22:27;;;;;;;16.92;11.95;;;9.70;99.90;;;;;;5033305;28;20155;-80
2023/10/27 00:24:53;;;;;;;18.83;11.50;;;9.70;99.90;;;;;;5032537;28;20497;-80
2023/10/27 00:27:20;;;;;;;16.00;10.38;;;9.70;99.90;;;;;;5033239;28;20505;-80
2023/10/27 00:29:46;;;;;;;17.70;11.98;;;9.70;99.90;;;;;;5031878;28;20084;-81
2023/10/27 00:32:11;;;;;;;19.77;13.05;;;9.60;99.90;;;;;;5031803;28;20073;-80
2023/10/27 00:34:37;;;;;;;18.40;12.48;;;9.60;99.90;;;;;;5016170;28;20051;-80
2023/10/27 00:37:03;;;;;;;20.15;12.57;;;9.60;99.90;;;;;;5015734;28;20045;-80
2023/10/27 00:39:28;;;;;;;19.08;13.02;;;9.50;99.90;;;;;;5032006;28;20041;-80
2023/10/27 00:41:54;;;;;;;20.83;12.55;;;9.60;99.90;;;;;;5031971;28;20048;-80
2023/10/27 00:44:19;;;;;;;21.60;13.65;;;9.50;99.90;;;;;;5031932;28;20033;-79
2023/10/27 00:46:45;;;;;;;20.73;13.80;;;9.50;99.90;;;;;;5031968;28;20049;-82
2023/10/27 00:49:12;;;;;;;20.67;13.50;;;9.50;99.90;;;;;;5031604;28;20037;-80
2023/10/27 00:51:38;;;;;;;20.58;12.75;;;9.50;99.90;;;;;;5030392;28;20512;-80
2023/10/27 00:54:08;;;;;;;19.02;12.82;;;9.50;99.90;;;;;;5014053;28;20120;-81
2023/10/27 00:56:35;;;;;;;20.95;12.13;;;9.40;99.90;;;;;;5030242;28;20041;-80
2023/10/27 00:59:01;;;;;;;19.60;11.85;;;9.40;99.90;;;;;;5031508;28;20460;-80
2023/10/27 01:01:27;;;;;;;18.10;12.02;;;9.40;99.90;;;;;;5031627;28;20045;-79
2023/10/27 01:03:55;;;;;;;21.02;12.63;;;9.30;99.90;;;;;;5031381;28;20041;-80
2023/10/27 01:06:22;;;;;;;17.30;12.35;;;9.30;99.90;;;;;;5031709;28;20049;-81
2023/10/27 01:08:47;;;;;;;17.27;11.68;;;9.20;99.90;;;;;;5031175;28;20052;-80
2023/10/27 01:11:13;;;;;;;22.33;12.75;;;9.20;99.90;;;;;;5014775;28;20045;-80
2023/10/27 01:13:38;;;;;;;19.33;12.02;;;9.20;99.90;;;;;;5031625;28;20049;-80
2023/10/27 01:16:04;;;;;;;16.60;11.73;;;9.10;99.90;;;;;;5014826;28;20041;-80
2023/10/27 01:18:30;;;;;;;18.58;12.18;;;9.10;99.90;;;;;;5031779;28;20037;-80
2023/10/27 01:20:55;;;;;;;19.38;12.48;;;9.10;99.90;;;;;;5031351;28;20087;-80
2023/10/27 01:23:21;;;;;;;18.15;11.90;;;9.10;99.90;;;;;;5031905;28;20037;-80
2023/10/27 01:25:46;;;;;;;19.02;11.85;;;9.00;99.90;;;;;;5014966;28;20456;-81
2023/10/27 01:28:12;;;;;;;16.23;11.35;;;9.00;99.90;;;;;;5031305;28;20038;-80
2023/10/27 01:30:37;;;;;;;20.20;13.52;;;9.00;99.90;;;;;;5030605;28;20092;-80
2023/10/27 01:33:03;;;;;;;19.75;13.30;;;9.10;99.90;;;;;;5015337;28;20120;-80
2023/10/27 01:35:28;;;;;;;21.60;13.35;;;9.10;99.90;;;;;;5031695;28;20051;-81
2023/10/27 01:37:54;;;;;;;19.48;12.70;;;9.10;99.90;;;;;;5015189;28;20040;-81
2023/10/27 01:40:19;;;;;;;20.70;13.50;;;9.20;99.90;;;;;;5031031;28;20045;-80
2023/10/27 01:42:45;;;;;;;25.50;14.82;;;9.20;99.90;;;;;;5031278;28;20046;-80
2023/10/27 01:45:11;;;;;;;23.42;14.82;;;9.20;99.90;;;;;;5030581;28;20053;-81
2023/10/27 01:47:36;;;;;;;23.40;14.93;;;9.20;99.90;;;;;;5031215;28;20048;-79
2023/10/27 01:50:02;;;;;;;24.05;14.60;;;9.20;99.90;;;;;;5014845;28;20045;-80
2023/10/27 01:52:28;;;;;;;24.75;15.05;;;9.30;99.90;;;;;;5031274;28;20033;-81
2023/10/27 01:54:53;;;;;;;25.20;15.45;;;9.30;99.90;;;;;;5031191;28;20038;-82
2023/10/27 01:57:24;;;;;;;21.98;13.88;;;9.30;99.90;;;;;;5030925;28;20029;-79
2023/10/27 01:59:52;;;;;;;25.58;15.50;;;9.30;99.90;;;;;;5030798;28;20038;-79
2023/10/27 02:02:18;;;;;;;24.33;14.25;;;9.30;99.90;;;;;;5031463;28;20041;-80
2023/10/27 02:04:43;;;;;;;22.48;14.00;;;9.40;99.90;;;;;;5031472;28;20037;-81
2023/10/27 02:07:09;;;;;;;23.85;14.35;;;9.40;99.90;;;;;;5031589;28;20044;-80
2023/10/27 02:09:34;;;;;;;22.30;13.95;;;9.40;99.90;;;;;;5030917;28;20120;-81
2023/10/27 02:12:00;;;;;;;20.88;13.90;;;9.40;99.90;;;;;;5030921;28;20046;-80
2023/10/27 02:14:26;;;;;;;21.67;12.60;;;9.40;99.90;;;;;;5033573;28;20124;-81
2023/10/27 02:16:52;;;;;;;22.45;13.55;;;9.40;99.90;;;;;;5034670;28;20041;-80
2023/10/27 02:19:17;;;;;;;25.20;13.02;;;9.40;99.90;;;;;;5035594;28;20037;-79
2023/10/27 02:21:43;;;;;;;21.77;13.38;;;9.30;99.90;;;;;;5034418;28;20034;-80
2023/10/27 02:24:08;;;;;;;22.15;13.95;;;9.30;99.90;;;;;;5034340;28;20041;-81
2023/10/27 02:26:35;;;;;;;22.40;13.38;;;9.30;99.90;;;;;;5034833;28;20034;-81
2023/10/27 02:29:01;;;;;;;25.33;15.00;;;9.30;99.90;;;;;;5034145;28;20548;-79
2023/10/27 02:31:26;;;;;;;22.00;13.57;;;9.20;99.90;;;;;;5034147;28;20303;-81
2023/10/27 02:33:52;;;;;;;22.23;13.38;;;9.30;99.90;;;;;;5034157;28;20053;-81
2023/10/27 02:36:18;;;;;;;24.70;13.40;;;9.30;99.90;;;;;;5034605;28;20099;-80
2023/10/27 02:38:43;;;;;;;25.33;13.85;;;9.30;99.90;;;;;;5035372;28;20116;-81
2023/10/27 02:41:10;;;;;;;21.70;13.40;;;9.20;99.90;;;;;;5034260;28;20033;-79
2023/10/27 02:43:37;;;;;;;22.52;13.48;;;9.20;99.90;;;;;;5034192;28;20076;-81
2023/10/27 02:46:04;;;;;;;23.60;13.43;;;9.20;99.90;;;;;;5034620;28;20045;-79
2023/10/27 02:48:29;;;;;;;22.80;13.07;;;9.20;99.90;;;;;;5034345;28;20034;-80
2023/10/27 02:50:55;;;;;;;22.55;13.75;;;9.10;99.90;;;;;;5034521;28;20049;-80
2023/10/27 02:53:20;;;;;;;24.80;14.80;;;9.10;99.90;;;;;;5034109;28;20125;-80
2023/10/27 02:55:46;;;;;;;22.25;13.32;;;9.10;99.90;;;;;;5034267;28;20120;-80
2023/10/27 02:58:12;;;;;;;22.35;12.88;;;9.10;99.90;;;;;;5033969;28;20559;-80
2023/10/27 03:00:44;;;;;;;21.13;12.95;;;9.10;99.90;;;;;;5033706;28;20037;-80
2023/10/27 03:03:10;;;;;;;20.92;13.32;;;9.10;99.90;;;;;;5034036;28;20119;-80
2023/10/27 03:05:35;;;;;;;19.48;12.70;;;9.00;99.90;;;;;;5017523;28;20501;-81
2023/10/27 03:08:02;;;;;;;18.70;12.52;;;9.10;99.90;;;;;;5017388;28;20048;-80
2023/10/27 03:10:28;;;;;;;21.45;13.73;;;9.10;99.90;;;;;;5033660;28;20456;-79
2023/10/27 03:12:54;;;;;;;22.50;13.77;;;9.10;99.90;;;;;;5033620;28;20077;-80
2023/10/27 03:15:20;;;;;;;19.40;12.98;;;9.00;99.90;;;;;;5033776;28;20139;-81
2023/10/27 03:17:46;;;;;;;19.65;13.20;;;9.00;99.90;;;;;;5034150;28;20038;-80
2023/10/27 03:20:11;;;;;;;17.25;12.40;;;9.00;99.90;;;;;;5033376;28;20104;-81
2023/10/27 03:22:37;;;;;;;19.80;12.60;;;9.10;99.90;;;;;;5033519;28;20048;-80
2023/10/27 03:25:03;;;;;;;19.45;12.18;;;9.10;99.90;;;;;;5032388;28;20045;-79
2023/10/27 03:27:32;;;;;;;17.40;11.98;;;9.00;99.90;;;;;;5033264;28;20049;-79
2023/10/27 03:29:58;;;;;;;19.88;12.52;;;9.00;99.90;;;;;;5032911;28;20041;-79
2023/10/27 03:32:23;;;;;;;18.33;12.32;;;9.00;99.90;;;;;;5033067;28;20038;-81
2023/10/27 03:34:49;;;;;;;18.40;12.43;;;9.00;99.90;;;;;;5033303;28;20509;-82
2023/10/27 03:37:15;;;;;;;17.45;12.32;;;9.00;99.90;;;;;;5033766;28;20045;-82
2023/10/27 03:39:41;;;;;;;17.35;11.75;;;9.00;99.90;;;;;;5032982;28;20405;-81
2023/10/27 03:42:07;;;;;;;19.60;12.13;;;9.00;99.90;;;;;;5017079;28;20043;-80
2023/10/27 03:44:33;;;;;;;20.00;12.32;;;9.00;99.90;;;;;;5033316;28;20076;-81
2023/10/27 03:46:58;;;;;;;16.95;12.07;;;9.00;99.90;;;;;;5033453;28;20531;-81
2023/10/27 03:49:25;;;;;;;19.50;11.95;;;9.00;99.90;;;;;;5033010;28;20099;-80
2023/10/27 03:51:50;;;;;;;19.50;12.93;;;9.00;99.90;;;;;;5033078;28;20053;-81
2023/10/27 03:54:16;;;;;;;17.88;12.00;;;9.00;99.90;;;;;;5033305;28;20044;-80
2023/10/27 03:56:41;;;;;;;16.73;11.55;;;9.00;99.90;;;;;;5033312;28;20405;-80
2023/10/27 03:59:07;;;;;;;16.95;11.68;;;9.00;99.90;;;;;;5033031;28;20048;-80
2023/10/27 04:01:33;;;;;;;17.77;12.18;;;9.00;99.90;;;;;;5034696;28;20476;-80
2023/10/27 04:03:58;;;;;;;17.75;12.15;;;9.00;99.90;;;;;;5032660;28;20041;-80
2023/10/27 04:06:24;;;;;;;19.10;12.48;;;9.00;99.90;;;;;;5032830;28;20447;-80
2023/10/27 04:08:49;;;;;;;17.35;11.82;;;9.00;99.90;;;;;;5032811;28;20440;-80
2023/10/27 04:11:15;;;;;;;19.90;11.15;;;9.00;99.90;;;;;;5032426;28;20077;-80
2023/10/27 04:13:41;;;;;;;16.65;11.15;;;9.00;99.90;;;;;;5032516;28;20076;-80
2023/10/27 04:16:06;;;;;;;18.33;11.80;;;9.10;99.90;;;;;;5031980;28;20046;-80
2023/10/27 04:18:32;;;;;;;21.27;12.05;;;9.00;99.90;;;;;;5032996;28;20116;-80
2023/10/27 04:20:58;;;;;;;17.60;11.68;;;9.00;99.90;;;;;;5032850;28;20087;-81
2023/10/27 04:23:23;;;;;;;15.82;11.85;;;9.00;99.90;;;;;;5032633;28;20076;-80
2023/10/27 04:25:51;;;;;;;15.95;11.57;;;9.00;99.90;;;;;;5032253;28;20045;-80
2023/10/27 04:28:17;;;;;;;16.00;11.15;;;9.00;99.90;;;;;;5032257;28;20428;-80
2023/10/27 04:30:42;;;;;;;16.30;10.98;;;9.00;99.90;;;;;;5032237;28;20048;-80
2023/10/27 04:33:09;;;;;;;15.10;11.25;;;9.00;99.90;;;;;;5032121;28;20040;-81
2023/10/27 04:35:35;;;;;;;18.42;11.65;;;9.00;99.90;;;;;;5015646;28;20037;-80
2023/10/27 04:38:01;;;;;;;16.67;11.73;;;9.00;99.90;;;;;;5032176;28;20055;-81
2023/10/27 04:40:31;;;;;;;17.20;11.85;;;9.00;99.90;;;;;;5015516;28;20091;-80
2023/10/27 04:42:58;;;;;;;17.65;11.10;;;9.00;99.90;;;;;;5032233;28;20046;-80
2023/10/27 04:45:24;;;;;;;16.15;11.52;;;9.00;99.90;;;;;;5032989;28;20111;-81
2023/10/27 04:47:50;;;;;;;17.25;11.05;;;9.00;99.90;;;;;;5033601;28;20095;-79
2023/10/27 04:50:16;;;;;;;17.83;12.10;;;9.10;99.90;;;;;;5017237;28;20500;-80
2023/10/27 04:52:41;;;;;;;17.75;11.73;;;9.10;99.90;;;;;;5032743;28;20038;-81
2023/10/27 04:55:08;;;;;;;18.25;11.35;;;9.10;99.90;;;;;;5011947;28;20041;-80
2023/10/27 04:57:35;;;;;;;16.85;11.68;;;9.10;99.90;;;;;;5031634;28;20065;-80
2023/10/27 05:00:01;;;;;;;18.45;11.48;;;9.10;99.90;;;;;;5034094;28;20073;-80
2023/10/27 05:02:26;;;;;;;18.90;11.38;;;9.10;99.90;;;;;;5032989;28;20095;-81
2023/10/27 05:04:52;;;;;;;16.77;11.70;;;9.10;99.90;;;;;;5032224;28;20045;-81
2023/10/27 05:07:17;;;;;;;17.73;11.77;;;9.10;99.90;;;;;;5015625;28;20041;-80
2023/10/27 05:09:43;;;;;;;18.50;11.60;;;9.20;99.90;;;;;;5015415;28;20073;-81
2023/10/27 05:12:08;;;;;;;19.17;12.70;;;9.30;99.90;;;;;;5032036;28;20045;-81
2023/10/27 05:14:34;;;;;;;16.83;11.93;;;9.20;99.90;;;;;;5015116;28;20037;-80
2023/10/27 05:17:00;;;;;;;21.42;12.85;;;9.20;99.90;;;;;;5031746;28;20046;-80
2023/10/27 05:19:26;;;;;;;21.02;13.18;;;9.20;99.90;;;;;;5030839;28;20072;-80
2023/10/27 05:21:51;;;;;;;21.20;13.18;;;9.20;99.90;;;;;;5030946;28;20071;-80
2023/10/27 05:24:17;;;;;;;20.80;12.93;;;9.20;99.90;;;;;;5032122;28;20099;-82
2023/10/27 05:26:43;;;;;;;22.23;13.85;;;9.20;99.90;;;;;;5031323;28;20037;-80
2023/10/27 05:29:08;;;;;;;20.70;13.70;;;9.20;99.90;;;;;;5031684;28;20076;-80
2023/10/27 05:31:34;;;;;;;22.17;13.52;;;9.20;99.90;;;;;;5031758;28;20052;-80
2023/10/27 05:34:01;;;;;;;20.17;13.20;;;9.20;99.90;;;;;;5032337;28;20523;-81
2023/10/27 05:36:26;;;;;;;20.70;13.25;;;9.20;99.90;;;;;;5032935;28;20064;-80
2023/10/27 05:38:52;;;;;;;23.17;14.50;;;9.20;99.90;;;;;;5031787;28;20107;-81
2023/10/27 05:41:17;;;;;;;21.42;13.48;;;9.20;99.90;;;;;;5032025;28;20127;-82
2023/10/27 05:43:43;;;;;;;21.35;13.93;;;9.20;99.90;;;;;;5032112;28;20123;-80
2023/10/27 05:46:09;;;;;;;21.38;14.02;;;9.20;99.90;;;;;;5032824;28;20077;-80
2023/10/27 05:48:36;;;;;;;21.83;13.95;;;9.20;99.90;;;;;;5033286;28;20045;-81
2023/10/27 05:51:03;;;;;;;21.27;13.45;;;9.20;99.90;;;;;;5036404;28;20068;-80
2023/10/27 05:53:28;;;;;;;20.80;13.77;;;9.20;99.90;;;;;;5019970;28;20038;-79
2023/10/27 05:55:54;;;;;;;20.75;14.23;;;9.20;99.90;;;;;;5036853;28;20037;-81
2023/10/27 05:58:19;;;;;;;21.33;13.55;;;9.20;99.90;;;;;;5019259;28;20069;-80
2023/10/27 06:00:46;;;;;;;19.00;13.20;;;9.20;99.90;;;;;;5035756;28;20049;-81
2023/10/27 06:03:12;;;;;;;20.25;13.77;;;9.20;99.90;;;;;;5036751;28;20420;-81
2023/10/27 06:05:37;;;;;;;19.70;13.18;;;9.20;99.90;;;;;;5036748;28;20034;-80
2023/10/27 06:08:03;;;;;;;19.73;13.35;;;9.20;99.90;;;;;;5036003;28;20053;-80
2023/10/27 06:10:29;;;;;;;19.10;13.15;;;9.20;99.90;;;;;;5037443;28;20061;-79
2023/10/27 06:12:55;;;;;;;18.85;13.38;;;9.20;99.90;;;;;;5035804;28;20116;-81
2023/10/27 06:15:21;;;;;;;19.52;12.93;;;9.20;99.90;;;;;;5019739;28;20460;-79
2023/10/27 06:17:46;;;;;;;17.95;12.75;;;9.20;99.90;;;;;;5035614;28;20471;-81
2023/10/27 06:20:12;;;;;;;18.73;12.40;;;9.20;99.90;;;;;;5035063;28;20041;-81
2023/10/27 06:22:38;;;;;;;17.80;12.90;;;9.20;99.90;;;;;;5035476;28;20056;-81
2023/10/27 06:25:04;;;;;;;17.30;13.02;;;9.20;99.90;;;;;;5036362;28;20042;-81
2023/10/27 06:27:29;;;;;;;20.42;12.98;;;9.20;99.90;;;;;;5035596;28;20042;-80
2023/10/27 06:29:56;;;;;;;22.77;13.68;;;9.20;99.90;;;;;;5034811;28;20041;-80
2023/10/27 06:32:23;;;;;;;21.13;13.70;;;9.20;99.90;;;;;;5035453;28;20037;-81
2023/10/27 06:34:48;;;;;;;18.85;12.82;;;9.20;99.90;;;;;;5018366;28;20116;-81
2023/10/27 06:37:14;;;;;;;20.05;14.02;;;9.20;99.90;;;;;;5036580;28;20072;-79
2023/10/27 06:39:39;;;;;;;18.35;13.23;;;9.30;99.90;;;;;;5035102;28;20049;-80
2023/10/27 06:42:06;;;;;;;23.35;13.15;;;9.20;99.90;;;;;;5035679;28;20377;-80
2023/10/27 06:44:32;;;;;;;22.38;13.85;;;9.30;99.90;;;;;;5034715;28;20045;-81
2023/10/27 06:46:57;;;;;;;19.42;13.45;;;9.30;99.90;;;;;;5035267;28;20057;-81
2023/10/27 06:49:23;;;;;;;19.65;12.77;;;9.30;99.90;;;;;;5034855;28;20409;-79
2023/10/27 06:51:49;;;;;;;19.55;12.88;;;9.30;99.90;;;;;;5034545;28;20064;-81
2023/10/27 06:54:14;;;;;;;21.35;13.13;;;9.30;99.90;;;;;;5034794;28;20037;-81
2023/10/27 06:56:40;;;;;;;20.33;13.77;;;9.30;99.90;;;;;;5036401;28;20578;-80
2023/10/27 06:59:05;;;;;;;18.60;12.60;;;9.30;99.90;;;;;;5036499;28;20134;-80
2023/10/27 07:01:31;;;;;;;19.23;13.20;;;9.30;99.90;;;;;;5034855;28;20120;-80
2023/10/27 07:03:56;;;;;;;19.52;12.23;;;9.30;99.90;;;;;;5034465;28;20053;-80
2023/10/27 07:06:22;;;;;;;21.50;13.23;;;9.30;99.90;;;;;;5034933;28;20042;-80
2023/10/27 07:08:47;;;;;;;18.42;12.98;;;9.30;99.90;;;;;;5034408;28;20463;-80
2023/10/27 07:11:13;;;;;;;18.83;13.05;;;9.30;99.90;;;;;;5034254;28;20419;-81
2023/10/27 07:13:38;;;;;;;18.35;12.82;;;9.30;99.90;;;;;;5034100;28;20103;-80
2023/10/27 07:16:04;;;;;;;18.98;11.77;;;9.30;99.90;;;;;;5035532;28;20138;-80
2023/10/27 07:18:30;;;;;;;17.45;12.45;;;9.40;99.90;;;;;;5034817;28;20042;-80
2023/10/27 07:20:56;;;;;;;18.80;12.55;;;9.40;99.90;;;;;;5033859;28;20037;-80
2023/10/27 07:23:22;;;;;;;17.27;12.20;;;9.40;99.90;;;;;;5034095;28;20037;-81
2023/10/27 07:25:47;;;;;;;18.73;11.75;;;9.40;99.90;;;;;;5034601;28;20037;-80
2023/10/27 07:28:13;;;;;;;19.27;11.82;;;9.40;99.90;;;;;;5034179;28;20045;-79
2023/10/27 07:30:38;;;;;;;18.13;11.43;;;9.40;99.90;;;;;;5032785;28;20060;-79
2023/10/27 07:33:04;;;;;;;19.17;12.35;;;9.40;99.90;;;;;;5033294;28;20123;-80
2023/10/27 07:35:33;;;;;;;16.92;10.95;;;9.50;99.90;;;;;;5034187;28;20065;-80
2023/10/27 07:37:59;;;;;;;15.88;11.20;;;9.50;99.90;;;;;;5033478;28;20048;-81
2023/10/27 07:40:25;;;;;;;17.05;11.60;;;9.50;99.90;;;;;;5033750;28;20220;-80
2023/10/27 07:42:52;;;;;;;16.52;11.65;;;9.50;99.90;;;;;;5033398;28;20509;-81
2023/10/27 07:45:17;;;;;;;17.02;11.98;;;9.50;99.90;;;;;;5033899;28;20382;-81
2023/10/27 07:47:43;;;;;;;16.30;11.70;;;9.60;99.90;;;;;;5016618;28;20087;-81
2023/10/27 07:50:10;;;;;;;15.52;11.25;;;9.60;99.90;;;;;;5033077;28;20045;-80
2023/10/27 07:52:36;;;;;;;18.50;11.77;;;9.60;99.90;;;;;;5032909;28;20076;-80
2023/10/27 07:55:02;;;;;;;16.60;11.75;;;9.60;99.90;;;;;;5033617;28;20041;-81
2023/10/27 07:57:28;;;;;;;19.20;12.93;;;9.60;99.90;;;;;;5033294;28;20034;-80
2023/10/27 07:59:54;;;;;;;18.50;11.95;;;9.70;99.90;;;;;;5017097;28;20029;-80
2023/10/27 08:02:19;;;;;;;17.85;12.43;;;9.70;99.90;;;;;;5032719;28;20521;-81
2023/10/27 08:04:45;;;;;;;20.88;13.25;;;9.70;99.90;;;;;;5033050;28;20048;-81
2023/10/27 08:07:10;;;;;;;17.75;12.57;;;9.80;99.90;;;;;;5033184;28;20045;-80
2023/10/27 08:09:36;;;;;;;17.13;12.13;;;9.80;99.90;;;;;;5016202;28;20064;-81
2023/10/27 08:12:03;;;;;;;19.65;12.57;;;9.80;99.90;;;;;;5032332;28;20132;-80
2023/10/27 08:14:29;;;;;;;18.88;12.60;;;9.90;99.90;;;;;;5032712;28;20038;-81
2023/10/27 08:16:54;;;;;;;18.38;12.88;;;9.90;99.90;;;;;;5016294;28;20052;-80
2023/10/27 08:19:20;;;;;;;23.83;13.35;;;9.90;99.90;;;;;;5016726;28;20116;-80
2023/10/27 08:21:48;;;;;;;20.50;13.18;;;9.90;99.90;;;;;;5032734;28;20519;-82
2023/10/27 08:24:14;;;;;;;18.58;12.45;;;10.00;99.90;;;;;;5032996;28;20509;-80
2023/10/27 08:26:40;;;;;;;18.85;12.68;;;10.00;99.90;;;;;;5016520;28;20045;-81
2023/10/27 08:29:05;;;;;;;18.40;12.77;;;10.00;99.90;;;;;;5031804;28;20041;-80
2023/10/27 08:31:31;;;;;;;16.95;11.95;;;10.10;99.90;;;;;;5016670;28;20072;-80
2023/10/27 08:34:00;;;;;;;17.25;11.45;;;10.10;99.90;;;;;;5032563;28;20075;-80
2023/10/27 08:36:27;;;;;;;17.98;12.60;;;10.10;99.90;;;;;;5032854;28;20041;-81
2023/10/27 08:38:55;;;;;;;15.70;11.13;;;10.10;99.90;;;;;;5032355;28;20072;-82
2023/10/27 08:41:24;;;;;;;17.35;11.70;;;10.20;99.90;;;;;;5015906;28;20037;-82
2023/10/27 08:43:49;;;;;;;16.17;10.60;;;10.20;99.90;;;;;;5031421;28;20046;-82
2023/10/27 08:46:15;;;;;;;15.50;11.45;;;10.20;99.90;;;;;;5015109;28;20045;-81
2023/10/27 08:48:42;;;;;;;18.50;12.10;;;10.20;99.90;;;;;;5031365;28;20056;-81
2023/10/27 08:51:09;;;;;;;18.38;12.98;;;10.20;99.90;;;;;;5031781;28;20045;-80
2023/10/27 08:53:40;;;;;;;16.98;11.85;;;10.20;99.90;;;;;;5031958;28;20486;-80
2023/10/27 08:56:07;;;;;;;16.58;11.88;;;10.20;99.90;;;;;;5032284;28;20072;-81
2023/10/27 08:58:33;;;;;;;14.88;11.10;;;10.20;99.90;;;;;;5032306;28;20083;-80
2023/10/27 09:00:59;;;;;;;18.38;11.73;;;10.20;99.90;;;;;;5032520;28;20041;-82
2023/10/27 09:03:25;;;;;;;16.20;11.57;;;10.20;99.90;;;;;;5031753;28;20037;-80
2023/10/27 09:05:50;;;;;;;15.48;11.35;;;10.20;99.90;;;;;;5015327;28;20485;-82
2023/10/27 09:08:18;;;;;;;14.85;10.95;;;10.30;99.90;;;;;;5032340;28;20053;-80
2023/10/27 09:10:46;;;;;;;15.15;10.32;;;10.30;99.90;;;;;;5032062;28;20037;-79
2023/10/27 09:13:12;;;;;;;14.43;10.65;;;10.30;99.90;;;;;;5031708;28;20037;-81
2023/10/27 09:15:41;;;;;;;14.50;10.32;;;10.30;99.90;;;;;;5015837;28;20409;-81
2023/10/27 09:18:08;;;;;;;13.45;10.32;;;10.30;99.90;;;;;;5031520;28;20029;-80
2023/10/27 09:20:46;;;;;;;14.98;10.52;;;10.30;99.90;;;;;;5032361;28;20048;-82
2023/10/27 09:23:12;;;;;;;13.45;10.23;;;10.40;99.90;;;;;;5030363;28;20047;-80
2023/10/27 09:25:38;;;;;;;15.00;10.27;;;10.40;99.90;;;;;;5014756;28;20489;-80
2023/10/27 09:28:07;;;;;;;14.38;9.90;;;10.50;99.90;;;;;;5031271;28;20052;-81
2023/10/27 09:30:43;;;;;;;16.02;11.05;;;10.40;99.90;;;;;;5031605;28;20076;-80
2023/10/27 09:33:17;;;;;;;13.13;10.07;;;10.50;99.90;;;;;;5032721;28;20037;-81
2023/10/27 09:35:44;;;;;;;12.38;9.48;;;10.50;99.90;;;;;;5033213;28;20048;-80
2023/10/27 09:38:12;;;;;;;14.75;10.13;;;10.50;99.90;;;;;;5032068;28;20081;-79
2023/10/27 09:40:38;;;;;;;14.88;9.95;;;10.50;99.90;;;;;;5015850;28;20065;-80
2023/10/27 09:43:07;;;;;;;13.80;9.98;;;10.50;99.90;;;;;;5032124;28;20048;-81
2023/10/27 09:45:35;;;;;;;13.10;10.05;;;10.50;99.90;;;;;;5031828;28;20053;-81
2023/10/27 09:48:05;;;;;;;15.05;10.05;;;10.60;99.90;;;;;;5031817;28;20041;-81
2023/10/27 09:50:32;;;;;;;10.93;8.68;;;10.60;99.90;;;;;;5031687;28;20539;-80
2023/10/27 09:53:00;;;;;;;14.85;10.52;;;10.60;99.90;;;;;;5031644;28;20053;-82
2023/10/27 09:55:27;;;;;;;12.57;9.35;;;10.70;99.90;;;;;;5032179;28;20087;-80
2023/10/27 09:57:52;;;;;;;14.43;10.82;;;10.70;99.90;;;;;;5031295;28;20125;-80
2023/10/27 10:00:39;;;;;;;15.45;11.13;;;10.80;99.90;;;;;;5031242;28;20529;-81
2023/10/27 10:03:06;;;;;;;16.15;11.20;;;10.80;99.90;;;;;;5031757;28;20045;-81
2023/10/27 10:06:12;;;;;;;16.15;11.60;;;10.90;99.90;;;;;;5031545;28;20042;-80
2023/10/27 10:08:40;;;;;;;17.67;11.23;;;10.90;99.90;;;;;;5014169;28;20037;-81
2023/10/27 10:11:14;;;;;;;20.13;12.00;;;11.00;99.90;;;;;;5031216;28;20052;-81
2023/10/27 10:13:39;;;;;;;;;;;11.10;99.90;;;;;;5031392;28;20237;-80
2023/10/27 10:16:06;;;;;;;15.35;11.40;;;11.00;99.90;;;;;;5031379;28;19971;-80
2023/10/27 10:18:38;;;;;;;16.13;11.23;;;11.10;99.90;;;;;;5031161;28;20063;-81
2023/10/27 10:21:06;;;;;;;16.13;11.73;;;11.10;99.90;;;;;;5031007;28;20038;-80
2023/10/27 10:23:37;;;;;;;14.88;10.98;;;11.10;99.90;;;;;;5030145;28;20052;-81
2023/10/27 10:26:03;;;;;;;16.05;11.73;;;11.20;99.90;;;;;;5031412;28;20049;-82
2023/10/27 10:28:40;;;;;;;16.55;11.88;;;11.20;99.90;;;;;;5030550;28;20480;-81
2023/10/27 10:31:13;;;;;;;15.30;10.80;;;11.20;99.90;;;;;;5030995;28;20691;-79
2023/10/27 10:33:40;;;;;;;16.35;11.52;;;11.20;99.90;;;;;;5030991;28;20046;-80
2023/10/27 10:36:15;;;;;;;16.20;11.57;;;11.20;99.90;;;;;;5034823;28;20424;-81
2023/10/27 10:39:10;;;;;;;16.42;11.45;;;11.20;99.90;;;;;;5018341;28;20374;-80
2023/10/27 10:41:43;;;;;;;14.40;10.13;;;11.20;99.90;;;;;;5033129;28;20128;-81
2023/10/27 10:44:15;;;;;;;16.52;11.38;;;11.10;99.90;;;;;;5034602;28;20052;-80
2023/10/27 10:46:43;;;;;;;15.57;11.30;;;11.10;99.90;;;;;;5035046;28;20049;-81
2023/10/27 10:49:21;;;;;;;14.55;10.73;;;11.20;99.90;;;;;;5034376;28;20053;-82
2023/10/27 10:51:55;;;;;;;14.38;9.90;;;11.10;99.90;;;;;;5034433;28;20157;-81
2023/10/27 10:54:34;;;;;;;14.18;10.00;;;11.10;99.90;;;;;;5034806;28;20041;-81
2023/10/27 10:57:07;;;;;;;13.25;9.95;;;11.00;99.90;;;;;;5017795;28;20383;-81
2023/10/27 10:59:33;;;;;;;13.20;9.82;;;11.00;99.90;;;;;;4997827;28;20034;-81
2023/10/27 11:02:00;;;;;;;12.23;9.68;;;10.90;99.90;;;;;;5034987;28;20408;-82
2023/10/27 11:04:32;;;;;;;12.35;8.80;;;10.90;99.90;;;;;;5034041;28;20123;-80
2023/10/27 11:07:00;;;;;;;12.55;8.73;;;10.80;99.90;;;;;;5034036;28;20111;-81
2023/10/27 11:09:26;;;;;;;11.88;9.18;;;10.80;99.90;;;;;;5033514;28;20038;-81
2023/10/27 11:11:52;;;;;;;12.43;8.80;;;10.80;99.90;;;;;;5034035;28;20492;-81
2023/10/27 11:14:17;;;;;;;11.10;8.55;;;10.80;99.90;;;;;;5034264;28;20049;-81
2023/10/27 11:16:43;;;;;;;14.45;9.57;;;10.70;99.90;;;;;;5017972;28;20137;-81
2023/10/27 11:19:16;;;;;;;12.63;8.13;;;10.70;99.90;;;;;;5034230;28;20044;-80
2023/10/27 11:21:42;;;;;;;11.52;8.85;;;10.80;99.90;;;;;;5033371;28;20037;-80
2023/10/27 11:24:08;;;;;;;12.70;9.68;;;10.80;99.90;;;;;;5034079;28;20041;-80
2023/10/27 11:26:41;;;;;;;12.40;9.20;;;10.80;99.90;;;;;;5033377;28;20034;-82
2023/10/27 11:29:08;;;;;;;12.80;9.02;;;10.80;99.90;;;;;;5016836;28;20120;-81
2023/10/27 11:31:39;;;;;;;15.18;9.10;;;10.90;99.90;;;;;;5033816;28;20452;-82
2023/10/27 11:34:07;;;;;;;11.35;8.68;;;10.90;99.90;;;;;;5033002;28;20046;-81
2023/10/27 11:36:58;;;;;;;11.18;8.45;;;10.90;99.90;;;;;;5017308;28;20501;-80
2023/10/27 11:39:24;;;;;;;12.40;9.18;;;10.90;99.90;;;;;;5033530;28;20034;-80
2023/10/27 11:41:54;;;;;;;13.48;9.65;;;10.90;99.90;;;;;;5033632;28;20056;-80
2023/10/27 11:44:21;;;;;;;13.65;8.70;;;10.80;99.90;;;;;;5033425;28;20045;-81
2023/10/27 11:46:52;;;;;;;14.32;9.68;;;10.90;99.90;;;;;;5032061;28;20086;-83
2023/10/27 11:49:17;;;;;;;13.70;10.35;;;10.90;99.90;;;;;;5032757;28;20172;-79
2023/10/27 11:51:44;;;;;;;13.57;9.95;;;10.80;99.90;;;;;;5033024;28;20513;-81
2023/10/27 11:54:10;;;;;;;13.45;9.70;;;10.80;99.90;;;;;;5013399;28;20081;-81
2023/10/27 11:56:37;;;;;;;13.15;9.38;;;10.80;99.90;;;;;;5030448;28;20033;-79
2023/10/27 11:59:03;;;;;;;14.40;10.00;;;10.70;99.90;;;;;;5033168;28;20033;-81
2023/10/27 12:01:29;;;;;;;14.50;9.93;;;10.80;99.90;;;;;;5032889;28;20144;-82
2023/10/27 12:03:54;;;;;;;16.33;10.80;;;10.70;99.90;;;;;;5016435;28;20095;-81
2023/10/27 12:06:20;;;;;;;15.45;11.10;;;10.70;99.90;;;;;;5033107;28;20045;-81
2023/10/27 12:08:45;;;;;;;14.35;10.38;;;10.70;99.90;;;;;;5032838;28;20072;-81
2023/10/27 12:11:14;;;;;;;14.45;10.30;;;10.70;99.90;;;;;;5032624;28;20072;-81
2023/10/27 12:13:40;;;;;;;14.40;10.00;;;10.70;99.90;;;;;;5033298;28;20508;-81
2023/10/27 12:16:06;;;;;;;15.75;10.45;;;10.70;99.90;;;;;;5032691;28;20033;-80
2023/10/27 12:18:32;;;;;;;14.90;10.15;;;10.70;99.90;;;;;;5015531;28;20044;-80
2023/10/27 12:21:00;;;;;;;14.80;9.65;;;10.70;99.90;;;;;;5048825;28;20045;-82
2023/10/27 12:23:29;;;;;;;15.40;10.60;;;10.70;99.90;;;;;;5032676;28;20041;-80
2023/10/27 12:26:01;;;;;;;16.52;11.00;;;10.70;99.90;;;;;;5032340;28;20042;-80
2023/10/27 12:28:27;;;;;;;18.42;11.30;;;10.80;99.90;;;;;;5032005;28;20091;-80
2023/10/27 12:30:54;;;;;;;16.58;10.57;;;10.80;99.90;;;;;;5032340;28;20061;-80
2023/10/27 12:33:20;;;;;;;15.63;11.48;;;10.80;99.90;;;;;;5016159;28;20153;-80